Time Latitude Longitude Accuracy (66% radius in meters) Altitude (meters) Speed (km/hour) Bearing (degrees) Battery (%) GPS flag
03:53:54 51.896835 107.662243 3.2000000476837 679.2 1.7371875047684 64.110000610352 63 1 delete
03:53:50 51.896812 107.662135 3.2000000476837 679.3 1.0587836503983 29.35000038147 63 1 delete
03:53:46 51.896787 107.662095 3.2000000476837 679.6 1.1452569961548 50.509998321533 63 1 delete
03:53:38 51.896783 107.661988 3.0999999046326 680.2 0 71.01000213623 63 1 delete
03:53:32 51.896775 107.661922 2.7999999523163 679.7 1.6218897104263 79.050003051758 63 1 delete
03:53:27 51.896742 107.661832 2.4000000953674 680.1 0 129.55000305176 63 1 delete
03:53:15 51.896742 107.661832 3.4000000953674 680.1 0 129.55000305176 63 1 delete
03:53:08 51.896755 107.661765 3.4000000953674 679.9 3.5078320503235 136.88999938965 63 1 delete
03:53:04 51.896807 107.661665 3.2000000476837 680.4 1.4726202487946 104.58000183105 63 1 delete
03:53:03 51.896812 107.661640 3.2000000476837 680.6 2.1494801044464 104.58000183105 63 1 delete
03:52:58 51.896857 107.661507 3.2000000476837 681.8 2.3563983440399 136.57000732422 63 1 delete
03:52:54 51.896938 107.661400 3.2999999523163 682.9 3.2844424247742 146.05000305176 63 1 delete
03:52:52 51.896973 107.661362 3.4000000953674 683.7 2.599347114563 146.42999267578 63 1 delete
03:52:49 51.897030 107.661317 3.2999999523163 685.1 2.3378684520721 138.19000244141 63 1 delete
03:52:45 51.897113 107.661218 3.4000000953674 686.7 3.9412281513214 144.41000366211 63 1 delete
03:52:41 51.897182 107.661130 3.4000000953674 689 0 182.72999572754 63 1 delete
03:52:40 51.897193 107.661122 3.5 689.6 1.1205502748489 182.72999572754 63 1 delete
03:52:35 51.897283 107.661125 3.5 691.5 2.8247954845428 193.33000183105 63 1 delete
03:52:32 51.897372 107.661163 3.5 692.3 4.282488822937 198.4700012207 63 1 delete
03:52:31 51.897405 107.661178 3.4000000953674 692.6 3.6231296062469 198.33999633789 63 1 delete
03:52:28 51.897475 107.661208 3.4000000953674 693.7 2.0012400150299 194.47999572754 63 1 delete
03:52:25 51.897562 107.661273 3.4000000953674 695.6 3.24738240242 196.03999328613 63 1 delete
03:52:22 51.897657 107.661327 3.4000000953674 697 3.5587894916534 185.64999389648 63 1 delete
03:52:19 51.897752 107.661347 3.5 698.3 2.494343996048 169.11000061035 63 1 delete
03:52:15 51.897855 107.661372 3.7000000476837 699.8 2.5602283477783 174.86999511719 63 1 delete
03:52:11 51.897953 107.661358 3.5999999046326 700.4 2.7578816413879 162.61000061035 63 1 delete
03:52:07 51.898017 107.661317 3.7000000476837 700.9 1.5168863534927 146.47999572754 63 1 delete
03:52:02 51.898043 107.661267 3.7999999523163 700.8 2.5236830711365 103.44000244141 63 1 delete
03:51:58 51.898063 107.661092 3.5 700.9 3.4316530227661 74.860000610352 63 1 delete
03:51:56 51.898038 107.661030 3.5 700.9 1.5853444337845 39.909999847412 63 1 delete
03:51:52 51.898020 107.660925 3.5 701.2 1.9502824544907 60.580001831055 63 1 delete
03:51:46 51.897993 107.660780 3.7999999523163 702.4 0 114.98999786377 63 1 delete
03:51:44 51.898025 107.660700 4 703.6 0 114.98999786377 63 1 delete
03:51:37 51.898062 107.660652 4.0999999046326 704.3 1.992489695549 145.19999694824 63 1 delete
03:51:33 51.898102 107.660628 4.0999999046326 704.7 0 142.97999572754 63 1 delete
03:51:29 51.898170 107.660590 4.1999998092651 703.7 1.4422516822815 134.41999816895 63 1 delete
03:51:24 51.898227 107.660475 4 702.6 0 53.130001068115 63 1 delete
03:51:22 51.898290 107.660418 3.9000000953674 703.3 0 53.130001068115 63 1 delete
03:51:13 51.898303 107.660328 4.1999998092651 704.9 1.8169693946838 50.169998168945 63 1 delete
03:51:10 51.898277 107.660273 4.0999999046326 705.8 0 349 63 1 delete
03:51:06 51.898288 107.660178 4.1999998092651 708 1.7047599554062 70.98999786377 63 1 delete
03:50:59 51.898250 107.660043 4.1999998092651 711.1 1.0371652841568 287.42001342773 63 1 delete
03:50:56 51.898248 107.660023 4.3000001907349 712.3 0 84.830001831055 63 1 delete
03:50:50 51.898300 107.659895 4 714.3 3.6936466693878 68.370002746582 63 1 delete
03:50:47 51.898237 107.659810 4 716.1 0 310.91000366211 63 1 delete
03:50:44 51.898222 107.659790 4.0999999046326 716.9 1.1606986522675 18.469999313354 63 1 delete
03:50:39 51.898168 107.659660 4.3000001907349 718.6 0 179.69999694824 63 1 delete
03:50:36 51.898167 107.659575 4.3000001907349 720.2 0 179.69999694824 63 1 delete
03:50:25 51.898247 107.659525 4.4000000953674 718.9 0 113.59999847412 63 1 delete
03:50:24 51.898270 107.659497 4.5 719 1.0726810693741 114.48000335693 63 1 delete